sensor_id;sensor_type;location;lat;lon;timestamp;temperature;humidity
39371;DHT22;25099;51.946;4.838;2022-11-09T00:02:19;13.40;99.90
39371;DHT22;25099;51.946;4.838;2022-11-09T00:04:44;13.40;99.90
39371;DHT22;25099;51.946;4.838;2022-11-09T00:07:10;13.40;99.90
39371;DHT22;25099;51.946;4.838;2022-11-09T00:09:37;13.40;99.90
39371;DHT22;25099;51.946;4.838;2022-11-09T00:12:03;13.40;99.90
39371;DHT22;25099;51.946;4.838;2022-11-09T00:14:30;13.50;99.90
39371;DHT22;25099;51.946;4.838;2022-11-09T00:16:56;13.50;99.90
39371;DHT22;25099;51.946;4.838;2022-11-09T00:19:22;13.50;99.90
39371;DHT22;25099;51.946;4.838;2022-11-09T00:21:48;13.50;99.90
39371;DHT22;25099;51.946;4.838;2022-11-09T00:24:14;13.50;99.90
39371;DHT22;25099;51.946;4.838;2022-11-09T00:26:40;13.50;99.90
39371;DHT22;25099;51.946;4.838;2022-11-09T00:29:06;13.40;99.90
39371;DHT22;25099;51.946;4.838;2022-11-09T00:31:32;13.40;99.90
39371;DHT22;25099;51.946;4.838;2022-11-09T00:33:57;13.40;99.90
39371;DHT22;25099;51.946;4.838;2022-11-09T00:36:25;13.40;99.90
39371;DHT22;25099;51.946;4.838;2022-11-09T00:38:52;13.40;99.90
39371;DHT22;25099;51.946;4.838;2022-11-09T00:41:18;13.40;99.90
39371;DHT22;25099;51.946;4.838;2022-11-09T00:43:45;13.40;99.90
39371;DHT22;25099;51.946;4.838;2022-11-09T00:46:10;13.30;99.90
39371;DHT22;25099;51.946;4.838;2022-11-09T00:48:36;13.40;99.90
39371;DHT22;25099;51.946;4.838;2022-11-09T00:51:02;13.40;99.90
39371;DHT22;25099;51.946;4.838;2022-11-09T00:53:29;13.30;99.90
39371;DHT22;25099;51.946;4.838;2022-11-09T00:55:57;13.40;99.90
39371;DHT22;25099;51.946;4.838;2022-11-09T00:58:23;13.40;99.90
39371;DHT22;25099;51.946;4.838;2022-11-09T01:00:49;13.40;99.90
39371;DHT22;25099;51.946;4.838;2022-11-09T01:03:15;13.40;99.90
39371;DHT22;25099;51.946;4.838;2022-11-09T01:05:41;13.30;99.90
39371;DHT22;25099;51.946;4.838;2022-11-09T01:08:07;13.30;99.90
39371;DHT22;25099;51.946;4.838;2022-11-09T01:10:32;13.20;99.90
39371;DHT22;25099;51.946;4.838;2022-11-09T01:12:58;13.20;99.90
39371;DHT22;25099;51.946;4.838;2022-11-09T01:15:24;13.10;99.90
39371;DHT22;25099;51.946;4.838;2022-11-09T01:17:50;13.10;99.90
39371;DHT22;25099;51.946;4.838;2022-11-09T01:20:16;13.10;99.90
39371;DHT22;25099;51.946;4.838;2022-11-09T01:22:42;13.00;99.90
39371;DHT22;25099;51.946;4.838;2022-11-09T01:25:07;13.00;99.90
39371;DHT22;25099;51.946;4.838;2022-11-09T01:27:33;12.90;99.90
39371;DHT22;25099;51.946;4.838;2022-11-09T01:29:59;12.90;99.90
39371;DHT22;25099;51.946;4.838;2022-11-09T01:32:25;12.90;99.90
39371;DHT22;25099;51.946;4.838;2022-11-09T01:34:50;12.90;99.90
39371;DHT22;25099;51.946;4.838;2022-11-09T01:37:16;13.00;99.90
39371;DHT22;25099;51.946;4.838;2022-11-09T01:39:41;12.90;99.90
39371;DHT22;25099;51.946;4.838;2022-11-09T01:42:07;12.90;99.90
39371;DHT22;25099;51.946;4.838;2022-11-09T01:44:35;12.90;99.90
39371;DHT22;25099;51.946;4.838;2022-11-09T01:47:12;12.90;99.90
39371;DHT22;25099;51.946;4.838;2022-11-09T01:49:56;12.90;99.90
39371;DHT22;25099;51.946;4.838;2022-11-09T01:52:35;12.90;99.90
39371;DHT22;25099;51.946;4.838;2022-11-09T01:55:08;13.00;99.90
39371;DHT22;25099;51.946;4.838;2022-11-09T01:57:39;12.90;99.90
39371;DHT22;25099;51.946;4.838;2022-11-09T02:00:08;12.90;99.90
39371;DHT22;25099;51.946;4.838;2022-11-09T02:02:35;12.80;99.90
39371;DHT22;25099;51.946;4.838;2022-11-09T02:05:09;12.80;99.90
39371;DHT22;25099;51.946;4.838;2022-11-09T02:07:36;12.80;99.90
39371;DHT22;25099;51.946;4.838;2022-11-09T02:10:07;12.70;99.90
39371;DHT22;25099;51.946;4.838;2022-11-09T02:12:34;12.80;99.90
39371;DHT22;25099;51.946;4.838;2022-11-09T02:15:06;12.80;99.90
39371;DHT22;25099;51.946;4.838;2022-11-09T02:17:33;12.70;99.90
39371;DHT22;25099;51.946;4.838;2022-11-09T02:19:59;12.80;99.90
39371;DHT22;25099;51.946;4.838;2022-11-09T02:22:25;12.80;99.90
39371;DHT22;25099;51.946;4.838;2022-11-09T02:24:51;12.70;99.90
39371;DHT22;25099;51.946;4.838;2022-11-09T02:27:18;12.80;99.90
39371;DHT22;25099;51.946;4.838;2022-11-09T02:29:46;12.70;99.90
39371;DHT22;25099;51.946;4.838;2022-11-09T02:32:22;12.80;99.90
39371;DHT22;25099;51.946;4.838;2022-11-09T02:34:48;12.80;99.90
39371;DHT22;25099;51.946;4.838;2022-11-09T02:37:38;12.80;99.90
39371;DHT22;25099;51.946;4.838;2022-11-09T02:40:11;12.90;99.90
39371;DHT22;25099;51.946;4.838;2022-11-09T02:42:38;12.90;99.90
39371;DHT22;25099;51.946;4.838;2022-11-09T02:45:04;12.90;99.90
39371;DHT22;25099;51.946;4.838;2022-11-09T02:47:30;12.90;99.90
39371;DHT22;25099;51.946;4.838;2022-11-09T02:49:55;12.90;99.90
39371;DHT22;25099;51.946;4.838;2022-11-09T02:52:22;13.00;99.90
39371;DHT22;25099;51.946;4.838;2022-11-09T02:54:48;13.00;99.90
39371;DHT22;25099;51.946;4.838;2022-11-09T02:57:13;12.90;99.90
39371;DHT22;25099;51.946;4.838;2022-11-09T02:59:39;12.90;99.90
39371;DHT22;25099;51.946;4.838;2022-11-09T03:02:05;12.90;99.90
39371;DHT22;25099;51.946;4.838;2022-11-09T03:04:30;12.80;99.90
39371;DHT22;25099;51.946;4.838;2022-11-09T03:06:56;12.90;99.90
39371;DHT22;25099;51.946;4.838;2022-11-09T03:09:21;12.80;99.90
39371;DHT22;25099;51.946;4.838;2022-11-09T03:11:47;12.70;99.90
39371;DHT22;25099;51.946;4.838;2022-11-09T03:14:14;12.80;99.90
39371;DHT22;25099;51.946;4.838;2022-11-09T03:16:39;12.70;99.90
39371;DHT22;25099;51.946;4.838;2022-11-09T03:19:05;12.60;99.90
39371;DHT22;25099;51.946;4.838;2022-11-09T03:21:31;12.70;99.90
39371;DHT22;25099;51.946;4.838;2022-11-09T03:23:57;12.60;99.90
39371;DHT22;25099;51.946;4.838;2022-11-09T03:26:22;12.60;99.90
39371;DHT22;25099;51.946;4.838;2022-11-09T03:28:48;12.60;99.90
39371;DHT22;25099;51.946;4.838;2022-11-09T03:31:14;12.60;99.90
39371;DHT22;25099;51.946;4.838;2022-11-09T03:33:40;12.60;99.90
39371;DHT22;25099;51.946;4.838;2022-11-09T03:36:06;12.60;99.90
39371;DHT22;25099;51.946;4.838;2022-11-09T03:38:32;12.40;99.90
39371;DHT22;25099;51.946;4.838;2022-11-09T03:41:00;12.50;99.90
39371;DHT22;25099;51.946;4.838;2022-11-09T03:43:29;12.40;99.90
39371;DHT22;25099;51.946;4.838;2022-11-09T03:45:55;12.30;99.90
39371;DHT22;25099;51.946;4.838;2022-11-09T03:48:22;12.30;99.90
39371;DHT22;25099;51.946;4.838;2022-11-09T03:50:47;12.30;99.90
39371;DHT22;25099;51.946;4.838;2022-11-09T03:53:13;12.40;99.90
39371;DHT22;25099;51.946;4.838;2022-11-09T03:55:39;12.40;99.90
39371;DHT22;25099;51.946;4.838;2022-11-09T03:58:06;12.40;99.90
39371;DHT22;25099;51.946;4.838;2022-11-09T04:00:32;12.40;99.90
39371;DHT22;25099;51.946;4.838;2022-11-09T04:02:58;12.30;99.90
39371;DHT22;25099;51.946;4.838;2022-11-09T04:05:24;12.40;99.90
39371;DHT22;25099;51.946;4.838;2022-11-09T04:07:52;12.30;99.90
39371;DHT22;25099;51.946;4.838;2022-11-09T04:10:19;12.40;99.90
39371;DHT22;25099;51.946;4.838;2022-11-09T04:12:45;12.40;99.90
39371;DHT22;25099;51.946;4.838;2022-11-09T04:15:11;12.40;99.90
39371;DHT22;25099;51.946;4.838;2022-11-09T04:17:37;12.40;99.90
39371;DHT22;25099;51.946;4.838;2022-11-09T04:20:04;12.50;99.90
39371;DHT22;25099;51.946;4.838;2022-11-09T04:22:30;12.50;99.90
39371;DHT22;25099;51.946;4.838;2022-11-09T04:24:56;12.50;99.90
39371;DHT22;25099;51.946;4.838;2022-11-09T04:27:21;12.50;99.90
39371;DHT22;25099;51.946;4.838;2022-11-09T04:29:47;12.50;99.90
39371;DHT22;25099;51.946;4.838;2022-11-09T04:32:12;12.50;99.90
39371;DHT22;25099;51.946;4.838;2022-11-09T04:34:38;12.50;99.90
39371;DHT22;25099;51.946;4.838;2022-11-09T04:37:06;12.50;99.90
39371;DHT22;25099;51.946;4.838;2022-11-09T04:39:31;12.50;99.90
39371;DHT22;25099;51.946;4.838;2022-11-09T04:41:57;12.50;99.90
39371;DHT22;25099;51.946;4.838;2022-11-09T04:44:22;12.40;99.90
39371;DHT22;25099;51.946;4.838;2022-11-09T04:46:48;12.40;99.90
39371;DHT22;25099;51.946;4.838;2022-11-09T04:49:13;12.30;99.90
39371;DHT22;25099;51.946;4.838;2022-11-09T04:51:39;13.30;99.90
39371;DHT22;25099;51.946;4.838;2022-11-09T04:54:04;12.20;99.90
39371;DHT22;25099;51.946;4.838;2022-11-09T04:56:30;12.20;99.90
39371;DHT22;25099;51.946;4.838;2022-11-09T04:58:55;12.30;99.90
39371;DHT22;25099;51.946;4.838;2022-11-09T05:01:21;12.20;99.90
39371;DHT22;25099;51.946;4.838;2022-11-09T05:03:47;12.20;99.90
39371;DHT22;25099;51.946;4.838;2022-11-09T05:06:13;12.20;99.90
39371;DHT22;25099;51.946;4.838;2022-11-09T05:09:05;12.20;99.90
39371;DHT22;25099;51.946;4.838;2022-11-09T05:11:32;12.30;99.90
39371;DHT22;25099;51.946;4.838;2022-11-09T05:13:58;12.30;99.90
39371;DHT22;25099;51.946;4.838;2022-11-09T05:16:24;12.20;99.90
39371;DHT22;25099;51.946;4.838;2022-11-09T05:18:50;12.20;99.90
39371;DHT22;25099;51.946;4.838;2022-11-09T05:21:16;12.20;99.90
39371;DHT22;25099;51.946;4.838;2022-11-09T05:23:42;12.20;99.90
39371;DHT22;25099;51.946;4.838;2022-11-09T05:26:34;12.20;99.90
39371;DHT22;25099;51.946;4.838;2022-11-09T05:29:05;12.10;99.90
39371;DHT22;25099;51.946;4.838;2022-11-09T05:31:31;12.10;99.90
39371;DHT22;25099;51.946;4.838;2022-11-09T05:33:57;12.00;99.90
39371;DHT22;25099;51.946;4.838;2022-11-09T05:36:24;11.90;99.90
39371;DHT22;25099;51.946;4.838;2022-11-09T05:38:49;11.90;99.90
39371;DHT22;25099;51.946;4.838;2022-11-09T05:41:15;11.90;99.90
39371;DHT22;25099;51.946;4.838;2022-11-09T05:43:42;11.90;99.90
39371;DHT22;25099;51.946;4.838;2022-11-09T05:46:09;11.80;99.90
39371;DHT22;25099;51.946;4.838;2022-11-09T05:48:35;11.80;99.90
39371;DHT22;25099;51.946;4.838;2022-11-09T05:51:05;11.70;99.90
39371;DHT22;25099;51.946;4.838;2022-11-09T05:53:31;11.70;99.90
39371;DHT22;25099;51.946;4.838;2022-11-09T05:56:05;11.70;99.90
39371;DHT22;25099;51.946;4.838;2022-11-09T05:58:32;11.60;99.90
39371;DHT22;25099;51.946;4.838;2022-11-09T06:01:02;11.60;99.90
39371;DHT22;25099;51.946;4.838;2022-11-09T06:03:28;11.60;99.90
39371;DHT22;25099;51.946;4.838;2022-11-09T06:05:54;11.60;99.90
39371;DHT22;25099;51.946;4.838;2022-11-09T06:08:19;11.50;99.90
39371;DHT22;25099;51.946;4.838;2022-11-09T06:10:45;11.60;99.90
39371;DHT22;25099;51.946;4.838;2022-11-09T06:13:11;11.70;99.90
39371;DHT22;25099;51.946;4.838;2022-11-09T06:15:36;11.70;99.90
39371;DHT22;25099;51.946;4.838;2022-11-09T06:18:02;11.70;99.90
39371;DHT22;25099;51.946;4.838;2022-11-09T06:20:28;11.70;99.90
39371;DHT22;25099;51.946;4.838;2022-11-09T06:22:58;11.80;99.90
39371;DHT22;25099;51.946;4.838;2022-11-09T06:25:25;11.80;99.90
39371;DHT22;25099;51.946;4.838;2022-11-09T06:27:53;11.90;99.90
39371;DHT22;25099;51.946;4.838;2022-11-09T06:30:19;11.80;99.90
39371;DHT22;25099;51.946;4.838;2022-11-09T06:32:44;11.80;99.90
39371;DHT22;25099;51.946;4.838;2022-11-09T06:35:10;11.70;99.90
39371;DHT22;25099;51.946;4.838;2022-11-09T06:37:35;11.80;99.90
39371;DHT22;25099;51.946;4.838;2022-11-09T06:40:01;11.70;99.90
39371;DHT22;25099;51.946;4.838;2022-11-09T06:42:26;11.80;99.90
39371;DHT22;25099;51.946;4.838;2022-11-09T06:44:52;11.80;99.90
39371;DHT22;25099;51.946;4.838;2022-11-09T06:47:17;11.90;99.90
39371;DHT22;25099;51.946;4.838;2022-11-09T06:49:43;11.90;99.90
39371;DHT22;25099;51.946;4.838;2022-11-09T06:52:08;12.00;99.90
39371;DHT22;25099;51.946;4.838;2022-11-09T06:54:34;12.00;99.90
39371;DHT22;25099;51.946;4.838;2022-11-09T06:57:02;12.00;99.90
39371;DHT22;25099;51.946;4.838;2022-11-09T06:59:28;12.00;99.90
39371;DHT22;25099;51.946;4.838;2022-11-09T07:01:53;12.00;99.90
39371;DHT22;25099;51.946;4.838;2022-11-09T07:04:19;12.00;99.90
39371;DHT22;25099;51.946;4.838;2022-11-09T07:06:44;12.00;99.90
39371;DHT22;25099;51.946;4.838;2022-11-09T07:09:11;12.00;99.90
39371;DHT22;25099;51.946;4.838;2022-11-09T07:11:37;12.00;99.90
39371;DHT22;25099;51.946;4.838;2022-11-09T07:14:03;12.00;99.90
39371;DHT22;25099;51.946;4.838;2022-11-09T07:16:29;12.00;99.90
39371;DHT22;25099;51.946;4.838;2022-11-09T07:18:55;11.90;99.90
39371;DHT22;25099;51.946;4.838;2022-11-09T07:21:21;11.90;99.90
39371;DHT22;25099;51.946;4.838;2022-11-09T07:23:47;11.90;99.90
39371;DHT22;25099;51.946;4.838;2022-11-09T07:26:14;11.90;99.90
39371;DHT22;25099;51.946;4.838;2022-11-09T07:28:39;11.90;99.90
39371;DHT22;25099;51.946;4.838;2022-11-09T07:31:06;12.00;99.90
39371;DHT22;25099;51.946;4.838;2022-11-09T07:33:31;12.00;99.90
39371;DHT22;25099;51.946;4.838;2022-11-09T07:36:02;12.10;99.90
39371;DHT22;25099;51.946;4.838;2022-11-09T07:38:28;12.10;99.90
39371;DHT22;25099;51.946;4.838;2022-11-09T07:40:57;12.00;99.90
39371;DHT22;25099;51.946;4.838;2022-11-09T07:43:23;12.00;99.90
39371;DHT22;25099;51.946;4.838;2022-11-09T07:45:49;12.00;99.90
39371;DHT22;25099;51.946;4.838;2022-11-09T07:48:14;11.90;99.90
39371;DHT22;25099;51.946;4.838;2022-11-09T07:50:41;12.00;99.90
39371;DHT22;25099;51.946;4.838;2022-11-09T07:53:11;12.00;99.90
39371;DHT22;25099;51.946;4.838;2022-11-09T07:55:37;12.00;99.90
39371;DHT22;25099;51.946;4.838;2022-11-09T07:58:05;12.10;99.90
39371;DHT22;25099;51.946;4.838;2022-11-09T08:00:34;12.10;99.90
39371;DHT22;25099;51.946;4.838;2022-11-09T08:03:00;12.10;99.90
39371;DHT22;25099;51.946;4.838;2022-11-09T08:05:25;12.20;99.90
39371;DHT22;25099;51.946;4.838;2022-11-09T08:07:59;12.30;99.90
39371;DHT22;25099;51.946;4.838;2022-11-09T08:10:26;12.40;99.90
39371;DHT22;25099;51.946;4.838;2022-11-09T08:12:53;12.40;99.90
39371;DHT22;25099;51.946;4.838;2022-11-09T08:15:19;12.50;99.90
39371;DHT22;25099;51.946;4.838;2022-11-09T08:17:45;12.50;99.90
39371;DHT22;25099;51.946;4.838;2022-11-09T08:20:10;12.60;99.90
39371;DHT22;25099;51.946;4.838;2022-11-09T08:22:43;12.60;99.90
39371;DHT22;25099;51.946;4.838;2022-11-09T08:25:10;12.60;99.90
39371;DHT22;25099;51.946;4.838;2022-11-09T08:27:38;12.70;99.90
39371;DHT22;25099;51.946;4.838;2022-11-09T08:30:07;12.70;99.90
39371;DHT22;25099;51.946;4.838;2022-11-09T08:32:34;12.70;99.90
39371;DHT22;25099;51.946;4.838;2022-11-09T08:35:01;12.80;99.90
39371;DHT22;25099;51.946;4.838;2022-11-09T08:37:26;12.90;99.90
39371;DHT22;25099;51.946;4.838;2022-11-09T08:39:52;12.90;99.90
39371;DHT22;25099;51.946;4.838;2022-11-09T08:42:17;13.00;99.90
39371;DHT22;25099;51.946;4.838;2022-11-09T08:44:43;13.00;99.90
39371;DHT22;25099;51.946;4.838;2022-11-09T08:47:08;13.00;99.90
39371;DHT22;25099;51.946;4.838;2022-11-09T08:49:34;13.10;99.90
39371;DHT22;25099;51.946;4.838;2022-11-09T08:51:59;13.10;99.90
39371;DHT22;25099;51.946;4.838;2022-11-09T08:54:25;13.10;99.90
39371;DHT22;25099;51.946;4.838;2022-11-09T08:56:54;13.20;99.90
39371;DHT22;25099;51.946;4.838;2022-11-09T08:59:20;13.20;99.90
39371;DHT22;25099;51.946;4.838;2022-11-09T09:01:46;13.30;99.90
39371;DHT22;25099;51.946;4.838;2022-11-09T09:04:11;13.20;99.90
39371;DHT22;25099;51.946;4.838;2022-11-09T09:06:37;13.40;99.90
39371;DHT22;25099;51.946;4.838;2022-11-09T09:09:02;13.30;99.90
39371;DHT22;25099;51.946;4.838;2022-11-09T09:11:28;13.40;99.90
39371;DHT22;25099;51.946;4.838;2022-11-09T09:13:53;13.40;99.90
39371;DHT22;25099;51.946;4.838;2022-11-09T09:16:19;13.40;99.90
39371;DHT22;25099;51.946;4.838;2022-11-09T09:18:46;13.40;99.90
39371;DHT22;25099;51.946;4.838;2022-11-09T09:21:12;13.50;99.90
39371;DHT22;25099;51.946;4.838;2022-11-09T09:23:37;13.50;99.90
39371;DHT22;25099;51.946;4.838;2022-11-09T09:26:03;13.50;99.90
39371;DHT22;25099;51.946;4.838;2022-11-09T09:28:29;13.50;99.90
39371;DHT22;25099;51.946;4.838;2022-11-09T09:30:57;13.60;99.90
39371;DHT22;25099;51.946;4.838;2022-11-09T09:33:24;13.60;99.90
39371;DHT22;25099;51.946;4.838;2022-11-09T09:35:49;13.50;99.90
39371;DHT22;25099;51.946;4.838;2022-11-09T09:38:15;13.60;99.90
39371;DHT22;25099;51.946;4.838;2022-11-09T09:43:25;13.70;99.90
39371;DHT22;25099;51.946;4.838;2022-11-09T09:45:52;13.70;99.90
39371;DHT22;25099;51.946;4.838;2022-11-09T09:48:26;13.80;99.90
39371;DHT22;25099;51.946;4.838;2022-11-09T09:50:59;13.70;99.90
39371;DHT22;25099;51.946;4.838;2022-11-09T09:53:36;13.70;99.90
39371;DHT22;25099;51.946;4.838;2022-11-09T09:56:24;13.90;99.90
39371;DHT22;25099;51.946;4.838;2022-11-09T09:58:59;13.90;99.90
39371;DHT22;25099;51.946;4.838;2022-11-09T10:01:36;13.90;99.90
39371;DHT22;25099;51.946;4.838;2022-11-09T10:04:02;13.90;99.90
39371;DHT22;25099;51.946;4.838;2022-11-09T10:06:39;13.90;99.90
39371;DHT22;25099;51.946;4.838;2022-11-09T10:14:42;14.10;99.90
39371;DHT22;25099;51.946;4.838;2022-11-09T10:23:01;14.30;99.90
39371;DHT22;25099;51.946;4.838;2022-11-09T10:25:35;14.30;99.90
39371;DHT22;25099;51.946;4.838;2022-11-09T10:28:13;14.30;99.90
39371;DHT22;25099;51.946;4.838;2022-11-09T10:30:42;14.40;99.90
39371;DHT22;25099;51.946;4.838;2022-11-09T10:38:28;14.30;99.90
39371;DHT22;25099;51.946;4.838;2022-11-09T10:41:01;14.30;99.90
39371;DHT22;25099;51.946;4.838;2022-11-09T10:43:28;14.20;99.90
39371;DHT22;25099;51.946;4.838;2022-11-09T10:46:05;14.20;99.90
39371;DHT22;25099;51.946;4.838;2022-11-09T10:48:36;14.10;99.90
39371;DHT22;25099;51.946;4.838;2022-11-09T10:51:03;14.10;99.90
39371;DHT22;25099;51.946;4.838;2022-11-09T10:53:32;14.10;99.90
39371;DHT22;25099;51.946;4.838;2022-11-09T10:56:12;14.20;99.90
39371;DHT22;25099;51.946;4.838;2022-11-09T10:58:39;14.20;99.90
39371;DHT22;25099;51.946;4.838;2022-11-09T11:01:22;14.30;99.90
39371;DHT22;25099;51.946;4.838;2022-11-09T11:03:52;14.40;99.90
39371;DHT22;25099;51.946;4.838;2022-11-09T11:08:51;14.30;99.90
39371;DHT22;25099;51.946;4.838;2022-11-09T11:11:27;14.30;99.90
39371;DHT22;25099;51.946;4.838;2022-11-09T11:16:35;14.30;99.90
39371;DHT22;25099;51.946;4.838;2022-11-09T11:19:02;14.30;99.90
39371;DHT22;25099;51.946;4.838;2022-11-09T11:21:28;14.10;99.90
39371;DHT22;25099;51.946;4.838;2022-11-09T11:24:18;14.00;99.90
39371;DHT22;25099;51.946;4.838;2022-11-09T11:26:55;13.70;99.90
39371;DHT22;25099;51.946;4.838;2022-11-09T11:29:45;13.50;99.90
39371;DHT22;25099;51.946;4.838;2022-11-09T11:32:15;13.30;99.90
39371;DHT22;25099;51.946;4.838;2022-11-09T11:34:41;13.10;99.90
39371;DHT22;25099;51.946;4.838;2022-11-09T11:37:23;12.90;99.90
39371;DHT22;25099;51.946;4.838;2022-11-09T11:42:39;12.70;99.90
39371;DHT22;25099;51.946;4.838;2022-11-09T11:45:13;12.70;99.90
39371;DHT22;25099;51.946;4.838;2022-11-09T11:47:59;12.80;99.90
39371;DHT22;25099;51.946;4.838;2022-11-09T11:56:32;13.10;99.90
39371;DHT22;25099;51.946;4.838;2022-11-09T11:59:32;13.20;99.90
39371;DHT22;25099;51.946;4.838;2022-11-09T12:05:38;13.40;99.90
39371;DHT22;25099;51.946;4.838;2022-11-09T12:11:03;13.60;99.90
39371;DHT22;25099;51.946;4.838;2022-11-09T12:14:06;13.70;99.90
39371;DHT22;25099;51.946;4.838;2022-11-09T12:17:06;13.70;99.90
39371;DHT22;25099;51.946;4.838;2022-11-09T12:23:06;13.80;99.90
39371;DHT22;25099;51.946;4.838;2022-11-09T12:28:39;13.90;99.90
39371;DHT22;25099;51.946;4.838;2022-11-09T12:34:35;14.00;99.90
39371;DHT22;25099;51.946;4.838;2022-11-09T12:37:03;14.10;99.90
39371;DHT22;25099;51.946;4.838;2022-11-09T12:39:40;14.10;99.90
39371;DHT22;25099;51.946;4.838;2022-11-09T12:42:12;14.10;99.90
39371;DHT22;25099;51.946;4.838;2022-11-09T12:47:33;14.20;99.90
39371;DHT22;25099;51.946;4.838;2022-11-09T12:50:01;14.20;99.90
39371;DHT22;25099;51.946;4.838;2022-11-09T12:52:28;14.20;99.90
39371;DHT22;25099;51.946;4.838;2022-11-09T12:54:58;14.20;99.90
39371;DHT22;25099;51.946;4.838;2022-11-09T12:57:27;14.30;99.90
39371;DHT22;25099;51.946;4.838;2022-11-09T12:59:58;14.40;99.90
39371;DHT22;25099;51.946;4.838;2022-11-09T13:02:31;14.50;99.90
39371;DHT22;25099;51.946;4.838;2022-11-09T13:05:05;14.50;99.90
39371;DHT22;25099;51.946;4.838;2022-11-09T13:12:49;14.50;99.90
39371;DHT22;25099;51.946;4.838;2022-11-09T13:23:02;14.70;99.90
39371;DHT22;25099;51.946;4.838;2022-11-09T13:25:43;14.70;99.90
39371;DHT22;25099;51.946;4.838;2022-11-09T13:30:56;14.60;99.90
39371;DHT22;25099;51.946;4.838;2022-11-09T13:33:32;14.50;99.90
39371;DHT22;25099;51.946;4.838;2022-11-09T13:36:14;14.80;99.90
39371;DHT22;25099;51.946;4.838;2022-11-09T13:38:40;14.80;99.90
39371;DHT22;25099;51.946;4.838;2022-11-09T13:44:25;14.50;99.90
39371;DHT22;25099;51.946;4.838;2022-11-09T13:46:52;14.60;99.90
39371;DHT22;25099;51.946;4.838;2022-11-09T13:49:42;14.60;99.90
39371;DHT22;25099;51.946;4.838;2022-11-09T13:54:53;14.50;99.90
39371;DHT22;25099;51.946;4.838;2022-11-09T13:57:20;14.50;99.90
39371;DHT22;25099;51.946;4.838;2022-11-09T13:59:47;14.50;99.90
39371;DHT22;25099;51.946;4.838;2022-11-09T14:02:24;14.40;99.90
39371;DHT22;25099;51.946;4.838;2022-11-09T14:04:50;14.50;99.90
39371;DHT22;25099;51.946;4.838;2022-11-09T14:10:20;14.40;99.90
39371;DHT22;25099;51.946;4.838;2022-11-09T14:18:25;15.10;99.90
39371;DHT22;25099;51.946;4.838;2022-11-09T14:23:30;14.10;99.90
39371;DHT22;25099;51.946;4.838;2022-11-09T14:25:57;14.10;99.90
39371;DHT22;25099;51.946;4.838;2022-11-09T14:28:28;14.10;99.90
39371;DHT22;25099;51.946;4.838;2022-11-09T14:30:54;14.00;99.90
39371;DHT22;25099;51.946;4.838;2022-11-09T14:33:27;14.00;99.90
39371;DHT22;25099;51.946;4.838;2022-11-09T14:35:57;14.00;99.90
39371;DHT22;25099;51.946;4.838;2022-11-09T14:38:44;14.00;99.90
39371;DHT22;25099;51.946;4.838;2022-11-09T14:41:23;14.00;99.90
39371;DHT22;25099;51.946;4.838;2022-11-09T14:43:51;14.00;99.90
39371;DHT22;25099;51.946;4.838;2022-11-09T14:46:28;14.00;99.90
39371;DHT22;25099;51.946;4.838;2022-11-09T14:48:59;14.00;99.90
39371;DHT22;25099;51.946;4.838;2022-11-09T14:51:37;14.20;99.90
39371;DHT22;25099;51.946;4.838;2022-11-09T14:54:09;14.10;99.90
39371;DHT22;25099;51.946;4.838;2022-11-09T14:56:37;14.10;99.90
39371;DHT22;25099;51.946;4.838;2022-11-09T14:59:05;14.00;99.90
39371;DHT22;25099;51.946;4.838;2022-11-09T15:01:31;13.90;99.90
39371;DHT22;25099;51.946;4.838;2022-11-09T15:04:13;13.80;99.90
39371;DHT22;25099;51.946;4.838;2022-11-09T15:09:44;13.80;99.90
39371;DHT22;25099;51.946;4.838;2022-11-09T15:12:17;13.70;99.90
39371;DHT22;25099;51.946;4.838;2022-11-09T15:14:52;13.70;99.90
39371;DHT22;25099;51.946;4.838;2022-11-09T15:17:28;13.70;99.90
39371;DHT22;25099;51.946;4.838;2022-11-09T15:19:59;13.70;99.90
39371;DHT22;25099;51.946;4.838;2022-11-09T15:33:25;13.50;99.90
39371;DHT22;25099;51.946;4.838;2022-11-09T15:36:05;13.50;99.90
39371;DHT22;25099;51.946;4.838;2022-11-09T15:38:43;13.40;99.90
39371;DHT22;25099;51.946;4.838;2022-11-09T15:41:19;13.30;99.90
39371;DHT22;25099;51.946;4.838;2022-11-09T15:43:45;13.30;99.90
39371;DHT22;25099;51.946;4.838;2022-11-09T15:46:13;13.30;99.90
39371;DHT22;25099;51.946;4.838;2022-11-09T15:48:40;13.30;99.90
39371;DHT22;25099;51.946;4.838;2022-11-09T15:51:06;13.20;99.90
39371;DHT22;25099;51.946;4.838;2022-11-09T15:53:31;13.30;99.90
39371;DHT22;25099;51.946;4.838;2022-11-09T15:55:58;13.30;99.90
39371;DHT22;25099;51.946;4.838;2022-11-09T15:58:23;13.20;99.90
39371;DHT22;25099;51.946;4.838;2022-11-09T16:00:49;13.20;99.90
39371;DHT22;25099;51.946;4.838;2022-11-09T16:03:14;13.20;99.90
39371;DHT22;25099;51.946;4.838;2022-11-09T16:05:44;13.10;99.90
39371;DHT22;25099;51.946;4.838;2022-11-09T16:08:11;13.00;99.90
39371;DHT22;25099;51.946;4.838;2022-11-09T16:10:37;13.10;99.90
39371;DHT22;25099;51.946;4.838;2022-11-09T16:13:05;13.00;99.90
39371;DHT22;25099;51.946;4.838;2022-11-09T16:15:32;13.00;99.90
39371;DHT22;25099;51.946;4.838;2022-11-09T16:18:00;13.00;99.90
39371;DHT22;25099;51.946;4.838;2022-11-09T16:20:25;13.00;99.90
39371;DHT22;25099;51.946;4.838;2022-11-09T16:22:51;13.00;99.90
39371;DHT22;25099;51.946;4.838;2022-11-09T16:25:17;13.00;99.90
39371;DHT22;25099;51.946;4.838;2022-11-09T16:27:43;13.00;99.90
39371;DHT22;25099;51.946;4.838;2022-11-09T16:30:09;13.00;99.90
39371;DHT22;25099;51.946;4.838;2022-11-09T16:32:36;12.90;99.90
39371;DHT22;25099;51.946;4.838;2022-11-09T16:35:04;12.90;99.90
39371;DHT22;25099;51.946;4.838;2022-11-09T16:37:33;12.90;99.90
39371;DHT22;25099;51.946;4.838;2022-11-09T16:40:04;12.90;99.90
39371;DHT22;25099;51.946;4.838;2022-11-09T16:42:31;12.90;99.90
39371;DHT22;25099;51.946;4.838;2022-11-09T16:45:02;12.90;99.90
39371;DHT22;25099;51.946;4.838;2022-11-09T16:47:29;13.00;99.90
39371;DHT22;25099;51.946;4.838;2022-11-09T16:49:55;13.00;99.90
39371;DHT22;25099;51.946;4.838;2022-11-09T16:52:20;13.00;99.90
39371;DHT22;25099;51.946;4.838;2022-11-09T16:54:49;13.90;99.90
39371;DHT22;25099;51.946;4.838;2022-11-09T16:57:14;13.50;99.90
39371;DHT22;25099;51.946;4.838;2022-11-09T16:59:40;12.90;99.90
39371;DHT22;25099;51.946;4.838;2022-11-09T17:02:05;12.80;99.90
39371;DHT22;25099;51.946;4.838;2022-11-09T17:04:31;12.80;99.90
39371;DHT22;25099;51.946;4.838;2022-11-09T17:06:56;12.80;99.90
39371;DHT22;25099;51.946;4.838;2022-11-09T17:09:22;12.80;99.90
39371;DHT22;25099;51.946;4.838;2022-11-09T17:11:48;12.70;99.90
39371;DHT22;25099;51.946;4.838;2022-11-09T17:14:13;12.60;99.90
39371;DHT22;25099;51.946;4.838;2022-11-09T17:16:39;12.60;99.90
39371;DHT22;25099;51.946;4.838;2022-11-09T17:19:06;12.60;99.90